sensor_id;sensor_type;location;lat;lon;timestamp;pressure;altitude;pressure_sealevel;temperature;humidity
10167;BME280;62970;53.130;8.244;2023-05-21T00:00:18;102113.66;;;13.42;52.96
10167;BME280;62970;53.130;8.244;2023-05-21T00:02:48;102104.00;;;13.44;52.50
10167;BME280;62970;53.130;8.244;2023-05-21T00:05:18;102102.22;;;13.46;52.67
10167;BME280;62970;53.130;8.244;2023-05-21T00:07:47;102103.94;;;13.49;52.73
10167;BME280;62970;53.130;8.244;2023-05-21T00:10:18;102101.31;;;13.50;53.09
10167;BME280;62970;53.130;8.244;2023-05-21T00:12:50;102098.69;;;13.50;52.84
10167;BME280;62970;53.130;8.244;2023-05-21T00:15:19;102096.00;;;13.53;53.10
10167;BME280;62970;53.130;8.244;2023-05-21T00:17:48;102092.50;;;13.54;52.58
10167;BME280;62970;53.130;8.244;2023-05-21T00:20:18;102093.34;;;13.56;53.17
10167;BME280;62970;53.130;8.244;2023-05-21T00:22:48;102097.69;;;13.59;53.08
10167;BME280;62970;53.130;8.244;2023-05-21T00:25:17;102094.16;;;13.60;52.83
10167;BME280;62970;53.130;8.244;2023-05-21T00:27:49;102105.50;;;13.60;53.13
10167;BME280;62970;53.130;8.244;2023-05-21T00:30:18;102095.91;;;13.61;53.19
10167;BME280;62970;53.130;8.244;2023-05-21T00:32:50;102099.44;;;13.58;52.77
10167;BME280;62970;53.130;8.244;2023-05-21T00:35:19;102094.25;;;13.55;52.95
10167;BME280;62970;53.130;8.244;2023-05-21T00:37:49;102096.03;;;13.52;52.47
10167;BME280;62970;53.130;8.244;2023-05-21T00:40:19;102092.59;;;13.48;52.73
10167;BME280;62970;53.130;8.244;2023-05-21T00:42:53;102085.69;;;13.43;52.78
10167;BME280;62970;53.130;8.244;2023-05-21T00:45:23;102089.25;;;13.38;53.18
10167;BME280;62970;53.130;8.244;2023-05-21T00:47:54;102094.56;;;13.34;53.04
10167;BME280;62970;53.130;8.244;2023-05-21T00:50:24;102089.38;;;13.29;53.23
10167;BME280;62970;53.130;8.244;2023-05-21T00:52:55;102072.88;;;13.23;52.87
10167;BME280;62970;53.130;8.244;2023-05-21T00:55:24;102071.19;;;13.19;53.41
10167;BME280;62970;53.130;8.244;2023-05-21T00:57:57;102066.91;;;13.13;53.22
10167;BME280;62970;53.130;8.244;2023-05-21T01:00:26;102066.97;;;13.08;53.65
10167;BME280;62970;53.130;8.244;2023-05-21T01:02:56;102058.31;;;13.03;53.68
10167;BME280;62970;53.130;8.244;2023-05-21T01:05:26;102063.63;;;12.99;53.73
10167;BME280;62970;53.130;8.244;2023-05-21T01:07:58;102058.41;;;12.97;54.10
10167;BME280;62970;53.130;8.244;2023-05-21T01:10:28;102063.63;;;12.97;54.25
10167;BME280;62970;53.130;8.244;2023-05-21T01:13:01;102063.63;;;12.97;53.59
10167;BME280;62970;53.130;8.244;2023-05-21T01:15:30;102059.25;;;12.99;54.25
10167;BME280;62970;53.130;8.244;2023-05-21T01:18:00;102047.00;;;13.01;53.77
10167;BME280;62970;53.130;8.244;2023-05-21T01:20:29;102058.31;;;13.03;53.68
10167;BME280;62970;53.130;8.244;2023-05-21T01:23:02;102054.81;;;13.04;53.74
10167;BME280;62970;53.130;8.244;2023-05-21T01:25:34;102054.78;;;13.07;54.17
10167;BME280;62970;53.130;8.244;2023-05-21T01:28:04;102044.28;;;13.07;53.69
10167;BME280;62970;53.130;8.244;2023-05-21T01:30:33;102038.19;;;13.08;53.82
10167;BME280;62970;53.130;8.244;2023-05-21T01:33:06;102044.31;;;13.06;53.38
10167;BME280;62970;53.130;8.244;2023-05-21T01:35:44;102040.84;;;13.05;53.76
10167;BME280;62970;53.130;8.244;2023-05-21T01:38:24;102040.88;;;13.02;53.32
10167;BME280;62970;53.130;8.244;2023-05-21T01:40:58;102040.91;;;13.01;53.75
10167;BME280;62970;53.130;8.244;2023-05-21T01:43:32;102039.22;;;12.97;53.33
10167;BME280;62970;53.130;8.244;2023-05-21T01:46:02;102040.13;;;12.93;53.92
10167;BME280;62970;53.130;8.244;2023-05-21T01:48:31;102033.19;;;12.90;54.04
10167;BME280;62970;53.130;8.244;2023-05-21T01:51:04;102034.09;;;12.88;53.98
10167;BME280;62970;53.130;8.244;2023-05-21T01:53:36;102039.38;;;12.85;53.76
10167;BME280;62970;53.130;8.244;2023-05-21T01:56:07;102031.53;;;12.83;54.21
10167;BME280;62970;53.130;8.244;2023-05-21T01:58:36;102038.53;;;12.81;54.24
10167;BME280;62970;53.130;8.244;2023-05-21T02:01:06;102042.94;;;12.79;54.18
10167;BME280;62970;53.130;8.244;2023-05-21T02:03:36;102036.84;;;12.79;53.78
10167;BME280;62970;53.130;8.244;2023-05-21T02:06:06;102036.00;;;12.77;54.28
10167;BME280;62970;53.130;8.244;2023-05-21T02:08:38;102043.00;;;12.73;54.12
10167;BME280;62970;53.130;8.244;2023-05-21T02:11:07;102034.31;;;12.71;54.24
10167;BME280;62970;53.130;8.244;2023-05-21T02:13:37;102045.66;;;12.70;53.95
10167;BME280;62970;53.130;8.244;2023-05-21T02:16:07;102039.59;;;12.66;54.17
10167;BME280;62970;53.130;8.244;2023-05-21T02:18:40;102031.81;;;12.62;54.07
10167;BME280;62970;53.130;8.244;2023-05-21T02:21:10;102037.06;;;12.60;54.46
10167;BME280;62970;53.130;8.244;2023-05-21T02:23:42;102035.31;;;12.56;53.97
10167;BME280;62970;53.130;8.244;2023-05-21T02:26:14;102035.34;;;12.53;54.00
10167;BME280;62970;53.130;8.244;2023-05-21T02:28:43;102031.91;;;12.50;54.41
10167;BME280;62970;53.130;8.244;2023-05-21T02:31:13;102023.22;;;12.46;54.55
10167;BME280;62970;53.130;8.244;2023-05-21T02:33:42;102022.38;;;12.42;54.31
10167;BME280;62970;53.130;8.244;2023-05-21T02:36:11;102019.78;;;12.41;54.74
10167;BME280;62970;53.130;8.244;2023-05-21T02:38:46;102025.06;;;12.38;54.72
10167;BME280;62970;53.130;8.244;2023-05-21T02:41:15;102031.19;;;12.35;54.50
10167;BME280;62970;53.130;8.244;2023-05-21T02:43:45;102025.09;;;12.33;54.34
10167;BME280;62970;53.130;8.244;2023-05-21T02:46:14;102020.78;;;12.31;54.63
10167;BME280;62970;53.130;8.244;2023-05-21T02:48:43;102031.28;;;12.28;54.42
10167;BME280;62970;53.130;8.244;2023-05-21T02:51:12;102026.97;;;12.22;54.44
10167;BME280;62970;53.130;8.244;2023-05-21T02:53:41;102017.44;;;12.17;54.95
10167;BME280;62970;53.130;8.244;2023-05-21T02:56:13;102022.75;;;12.10;55.04
10167;BME280;62970;53.130;8.244;2023-05-21T02:58:43;102024.56;;;12.04;54.65
10167;BME280;62970;53.130;8.244;2023-05-21T03:01:12;102028.97;;;11.99;55.11
10167;BME280;62970;53.130;8.244;2023-05-21T03:03:41;102022.91;;;11.94;54.68
10167;BME280;62970;53.130;8.244;2023-05-21T03:06:11;102029.94;;;11.89;54.76
10167;BME280;62970;53.130;8.244;2023-05-21T03:08:41;102028.22;;;11.86;54.80
10167;BME280;62970;53.130;8.244;2023-05-21T03:11:12;102023.88;;;11.85;55.31
10167;BME280;62970;53.130;8.244;2023-05-21T03:13:42;102021.22;;;11.87;55.00
10167;BME280;62970;53.130;8.244;2023-05-21T03:16:11;102022.94;;;11.89;54.96
10167;BME280;62970;53.130;8.244;2023-05-21T03:18:40;102006.41;;;11.89;55.29
10167;BME280;62970;53.130;8.244;2023-05-21T03:21:09;102012.50;;;11.88;55.38
10167;BME280;62970;53.130;8.244;2023-05-21T03:23:40;102010.78;;;11.87;55.34
10167;BME280;62970;53.130;8.244;2023-05-21T03:26:12;102013.41;;;11.87;54.86
10167;BME280;62970;53.130;8.244;2023-05-21T03:28:41;102008.16;;;11.87;55.30
10167;BME280;62970;53.130;8.244;2023-05-21T03:31:11;102009.03;;;11.86;54.83
10167;BME280;62970;53.130;8.244;2023-05-21T03:33:40;102009.03;;;11.86;54.84
10167;BME280;62970;53.130;8.244;2023-05-21T03:36:10;102009.06;;;11.83;55.31
10167;BME280;62970;53.130;8.244;2023-05-21T03:38:39;102000.38;;;11.82;55.17
10167;BME280;62970;53.130;8.244;2023-05-21T03:41:08;101996.03;;;11.81;55.04
10167;BME280;62970;53.130;8.244;2023-05-21T03:43:41;101989.94;;;11.79;54.80
10167;BME280;62970;53.130;8.244;2023-05-21T03:46:10;101989.94;;;11.79;54.89
10167;BME280;62970;53.130;8.244;2023-05-21T03:48:39;101996.88;;;11.82;55.36
10167;BME280;62970;53.130;8.244;2023-05-21T03:51:08;101999.47;;;11.85;54.87
10167;BME280;62970;53.130;8.244;2023-05-21T03:53:38;102009.91;;;11.88;55.15
10167;BME280;62970;53.130;8.244;2023-05-21T03:56:07;101997.69;;;11.90;54.81
10167;BME280;62970;53.130;8.244;2023-05-21T03:58:36;102009.00;;;11.92;55.17
10167;BME280;62970;53.130;8.244;2023-05-21T04:01:09;102003.78;;;11.89;55.34
10167;BME280;62970;53.130;8.244;2023-05-21T04:03:38;101998.59;;;11.86;54.91
10167;BME280;62970;53.130;8.244;2023-05-21T04:06:08;102004.75;;;11.80;54.93
10167;BME280;62970;53.130;8.244;2023-05-21T04:08:37;102008.28;;;11.74;55.17
10167;BME280;62970;53.130;8.244;2023-05-21T04:11:07;102009.19;;;11.72;55.49
10167;BME280;62970;53.130;8.244;2023-05-21T04:13:37;102010.06;;;11.69;55.61
10167;BME280;62970;53.130;8.244;2023-05-21T04:16:09;102010.06;;;11.69;55.30
10167;BME280;62970;53.130;8.244;2023-05-21T04:18:39;102009.19;;;11.70;55.74
10167;BME280;62970;53.130;8.244;2023-05-21T04:21:09;102008.31;;;11.71;55.72
10167;BME280;62970;53.130;8.244;2023-05-21T04:23:38;102004.81;;;11.74;55.80
10167;BME280;62970;53.130;8.244;2023-05-21T04:26:08;102006.53;;;11.76;55.93
10167;BME280;62970;53.130;8.244;2023-05-21T04:28:37;102013.47;;;11.79;55.60
10167;BME280;62970;53.130;8.244;2023-05-21T04:31:10;102011.72;;;11.79;55.88
10167;BME280;62970;53.130;8.244;2023-05-21T04:33:40;102003.88;;;11.79;55.82
10167;BME280;62970;53.130;8.244;2023-05-21T04:36:11;102007.34;;;11.80;55.85
10167;BME280;62970;53.130;8.244;2023-05-21T04:38:43;102011.69;;;11.81;55.63
10167;BME280;62970;53.130;8.244;2023-05-21T04:41:13;102009.94;;;11.85;56.09
10167;BME280;62970;53.130;8.244;2023-05-21T04:43:43;102016.78;;;11.96;55.81
10167;BME280;62970;53.130;8.244;2023-05-21T04:46:15;102013.16;;;12.09;55.54
10167;BME280;62970;53.130;8.244;2023-05-21T04:48:45;102020.00;;;12.23;55.68
10167;BME280;62970;53.130;8.244;2023-05-21T04:51:15;102023.38;;;12.32;55.17
10167;BME280;62970;53.130;8.244;2023-05-21T04:53:45;102012.88;;;12.37;55.17
10167;BME280;62970;53.130;8.244;2023-05-21T04:56:15;102014.53;;;12.42;55.55
10167;BME280;62970;53.130;8.244;2023-05-21T04:58:46;102002.25;;;12.49;55.25
10167;BME280;62970;53.130;8.244;2023-05-21T05:01:18;102000.44;;;12.59;54.99
10167;BME280;62970;53.130;8.244;2023-05-21T05:03:48;102001.19;;;12.70;55.15
10167;BME280;62970;53.130;8.244;2023-05-21T05:06:17;101999.19;;;12.87;54.86
10167;BME280;62970;53.130;8.244;2023-05-21T05:08:47;102002.47;;;13.03;54.69
10167;BME280;62970;53.130;8.244;2023-05-21T05:11:16;101993.66;;;13.08;54.30
10167;BME280;62970;53.130;8.244;2023-05-21T05:13:46;102004.03;;;13.15;54.20
10167;BME280;62970;53.130;8.244;2023-05-21T05:16:18;102006.63;;;13.18;54.19
10167;BME280;62970;53.130;8.244;2023-05-21T05:18:50;101998.66;;;13.24;54.58
10167;BME280;62970;53.130;8.244;2023-05-21T05:21:21;101993.34;;;13.30;53.81
10167;BME280;62970;53.130;8.244;2023-05-21T05:23:51;101995.81;;;13.37;54.03
10167;BME280;62970;53.130;8.244;2023-05-21T05:26:20;101982.63;;;13.44;54.15
10167;BME280;62970;53.130;8.244;2023-05-21T05:28:49;101985.13;;;13.51;53.81
10167;BME280;62970;53.130;8.244;2023-05-21T05:31:21;101987.69;;;13.54;53.59
10167;BME280;62970;53.130;8.244;2023-05-21T05:33:50;101996.41;;;13.56;53.52
10167;BME280;62970;53.130;8.244;2023-05-21T05:36:20;101989.38;;;13.58;53.92
10167;BME280;62970;53.130;8.244;2023-05-21T05:38:49;101986.75;;;13.58;54.05
10167;BME280;62970;53.130;8.244;2023-05-21T05:41:18;101987.66;;;13.56;53.58
10167;BME280;62970;53.130;8.244;2023-05-21T05:43:48;101985.94;;;13.55;53.74
10167;BME280;62970;53.130;8.244;2023-05-21T05:46:17;101983.31;;;13.55;53.94
10167;BME280;62970;53.130;8.244;2023-05-21T05:48:49;101980.75;;;13.52;54.18
10167;BME280;62970;53.130;8.244;2023-05-21T05:51:18;101965.94;;;13.49;54.28
10167;BME280;62970;53.130;8.244;2023-05-21T05:53:47;101980.72;;;13.53;54.37
10167;BME280;62970;53.130;8.244;2023-05-21T05:56:16;101976.31;;;13.55;53.88
10167;BME280;62970;53.130;8.244;2023-05-21T05:58:46;101976.25;;;13.58;54.29
10167;BME280;62970;53.130;8.244;2023-05-21T06:01:15;101976.34;;;13.54;53.87
10167;BME280;62970;53.130;8.244;2023-05-21T06:03:44;101971.94;;;13.56;54.23
10167;BME280;62970;53.130;8.244;2023-05-21T06:06:16;101970.22;;;13.55;53.98
10167;BME280;62970;53.130;8.244;2023-05-21T06:08:46;101969.31;;;13.56;54.43
10167;BME280;62970;53.130;8.244;2023-05-21T06:11:15;101966.69;;;13.57;54.42
10167;BME280;62970;53.130;8.244;2023-05-21T06:13:45;101967.47;;;13.62;54.32
10167;BME280;62970;53.130;8.244;2023-05-21T06:16:14;101967.41;;;13.67;54.43
10167;BME280;62970;53.130;8.244;2023-05-21T06:18:44;101970.00;;;13.68;54.17
10167;BME280;62970;53.130;8.244;2023-05-21T06:21:16;101964.75;;;13.70;53.73
10167;BME280;62970;53.130;8.244;2023-05-21T06:23:46;101961.25;;;13.69;53.75
10167;BME280;62970;53.130;8.244;2023-05-21T06:26:16;101962.97;;;13.70;54.01
10167;BME280;62970;53.130;8.244;2023-05-21T06:28:46;101963.81;;;13.73;54.10
10167;BME280;62970;53.130;8.244;2023-05-21T06:31:16;101967.25;;;13.76;53.87
10167;BME280;62970;53.130;8.244;2023-05-21T06:33:47;101962.75;;;13.83;54.37
10167;BME280;62970;53.130;8.244;2023-05-21T10:01:33;101879.44;;;19.71;49.59
10167;BME280;62970;53.130;8.244;2023-05-21T20:23:56;101656.22;;;22.38;47.95
